sensor_id;sensor_type;location;lat;lon;timestamp;P1;durP1;ratioP1;P2;durP2;ratioP2
40320;SDS011;26027;51.454;6.628;2022-08-01T00:01:07;0.30;;;0.30;;
40320;SDS011;26027;51.454;6.628;2022-08-01T00:03:33;0.30;;;0.30;;
40320;SDS011;26027;51.454;6.628;2022-08-01T00:05:59;0.20;;;0.20;;
40320;SDS011;26027;51.454;6.628;2022-08-01T00:08:25;0.10;;;0.10;;
40320;SDS011;26027;51.454;6.628;2022-08-01T00:10:51;0.52;;;0.20;;
40320;SDS011;26027;51.454;6.628;2022-08-01T00:13:17;0.20;;;0.20;;
40320;SDS011;26027;51.454;6.628;2022-08-01T00:15:43;0.10;;;0.10;;
40320;SDS011;26027;51.454;6.628;2022-08-01T00:18:09;0.20;;;0.20;;
40320;SDS011;26027;51.454;6.628;2022-08-01T00:20:35;0.10;;;0.10;;
40320;SDS011;26027;51.454;6.628;2022-08-01T00:23:02;0.20;;;0.20;;
40320;SDS011;26027;51.454;6.628;2022-08-01T00:25:28;0.20;;;0.20;;
40320;SDS011;26027;51.454;6.628;2022-08-01T00:27:54;0.17;;;0.17;;
40320;SDS011;26027;51.454;6.628;2022-08-01T00:30:20;0.20;;;0.20;;
40320;SDS011;26027;51.454;6.628;2022-08-01T00:32:46;0.20;;;0.20;;
40320;SDS011;26027;51.454;6.628;2022-08-01T00:35:12;0.10;;;0.10;;
40320;SDS011;26027;51.454;6.628;2022-08-01T00:37:38;0.20;;;0.20;;
40320;SDS011;26027;51.454;6.628;2022-08-01T00:40:04;0.20;;;0.20;;
40320;SDS011;26027;51.454;6.628;2022-08-01T00:42:31;0.20;;;0.20;;
40320;SDS011;26027;51.454;6.628;2022-08-01T00:44:58;0.20;;;0.20;;
40320;SDS011;26027;51.454;6.628;2022-08-01T00:47:24;0.10;;;0.10;;
40320;SDS011;26027;51.454;6.628;2022-08-01T00:49:50;0.25;;;0.25;;
40320;SDS011;26027;51.454;6.628;2022-08-01T00:52:16;0.30;;;0.30;;
40320;SDS011;26027;51.454;6.628;2022-08-01T00:54:43;0.20;;;0.20;;
40320;SDS011;26027;51.454;6.628;2022-08-01T00:57:09;0.30;;;0.30;;
40320;SDS011;26027;51.454;6.628;2022-08-01T00:59:35;0.20;;;0.20;;
40320;SDS011;26027;51.454;6.628;2022-08-01T01:02:02;0.20;;;0.20;;
40320;SDS011;26027;51.454;6.628;2022-08-01T01:04:28;0.10;;;0.10;;
40320;SDS011;26027;51.454;6.628;2022-08-01T01:07:04;0.20;;;0.20;;
40320;SDS011;26027;51.454;6.628;2022-08-01T01:09:52;0.00;;;0.00;;
40320;SDS011;26027;51.454;6.628;2022-08-01T01:12:35;0.20;;;0.20;;
40320;SDS011;26027;51.454;6.628;2022-08-01T01:15:15;0.20;;;0.20;;
40320;SDS011;26027;51.454;6.628;2022-08-01T01:17:45;0.22;;;0.22;;
40320;SDS011;26027;51.454;6.628;2022-08-01T01:20:13;0.20;;;0.20;;
40320;SDS011;26027;51.454;6.628;2022-08-01T01:25:27;0.15;;;0.15;;
40320;SDS011;26027;51.454;6.628;2022-08-01T01:28:02;0.15;;;0.15;;
40320;SDS011;26027;51.454;6.628;2022-08-01T01:30:29;0.20;;;0.20;;
40320;SDS011;26027;51.454;6.628;2022-08-01T01:32:58;0.20;;;0.20;;
40320;SDS011;26027;51.454;6.628;2022-08-01T01:35:27;0.20;;;0.20;;
40320;SDS011;26027;51.454;6.628;2022-08-01T01:37:57;0.20;;;0.20;;
40320;SDS011;26027;51.454;6.628;2022-08-01T01:40:23;0.20;;;0.20;;
40320;SDS011;26027;51.454;6.628;2022-08-01T01:42:50;0.10;;;0.10;;
40320;SDS011;26027;51.454;6.628;2022-08-01T01:45:16;0.28;;;0.28;;
40320;SDS011;26027;51.454;6.628;2022-08-01T01:47:43;0.10;;;0.10;;
40320;SDS011;26027;51.454;6.628;2022-08-01T01:50:11;0.20;;;0.20;;
40320;SDS011;26027;51.454;6.628;2022-08-01T01:52:37;0.30;;;0.30;;
40320;SDS011;26027;51.454;6.628;2022-08-01T01:55:05;0.30;;;0.20;;
40320;SDS011;26027;51.454;6.628;2022-08-01T01:57:32;0.10;;;0.10;;
40320;SDS011;26027;51.454;6.628;2022-08-01T02:00:01;0.20;;;0.20;;
40320;SDS011;26027;51.454;6.628;2022-08-01T02:02:28;0.20;;;0.20;;
40320;SDS011;26027;51.454;6.628;2022-08-01T02:04:54;0.17;;;0.17;;
40320;SDS011;26027;51.454;6.628;2022-08-01T02:07:24;0.30;;;0.30;;
40320;SDS011;26027;51.454;6.628;2022-08-01T02:09:50;0.20;;;0.20;;
40320;SDS011;26027;51.454;6.628;2022-08-01T02:12:17;0.30;;;0.30;;
40320;SDS011;26027;51.454;6.628;2022-08-01T02:14:44;0.20;;;0.20;;
40320;SDS011;26027;51.454;6.628;2022-08-01T02:17:12;0.20;;;0.20;;
40320;SDS011;26027;51.454;6.628;2022-08-01T02:19:42;0.20;;;0.20;;
40320;SDS011;26027;51.454;6.628;2022-08-01T02:22:12;0.32;;;0.32;;
40320;SDS011;26027;51.454;6.628;2022-08-01T02:24:43;0.20;;;0.20;;
40320;SDS011;26027;51.454;6.628;2022-08-01T02:29:59;0.10;;;0.10;;
40320;SDS011;26027;51.454;6.628;2022-08-01T02:32:27;0.30;;;0.30;;
40320;SDS011;26027;51.454;6.628;2022-08-01T02:34:56;0.20;;;0.20;;
40320;SDS011;26027;51.454;6.628;2022-08-01T02:37:22;0.20;;;0.20;;
40320;SDS011;26027;51.454;6.628;2022-08-01T02:39:50;0.20;;;0.20;;
40320;SDS011;26027;51.454;6.628;2022-08-01T02:42:18;0.10;;;0.10;;
40320;SDS011;26027;51.454;6.628;2022-08-01T02:44:44;0.20;;;0.20;;
40320;SDS011;26027;51.454;6.628;2022-08-01T02:47:11;0.17;;;0.17;;
40320;SDS011;26027;51.454;6.628;2022-08-01T02:49:45;0.20;;;0.20;;
40320;SDS011;26027;51.454;6.628;2022-08-01T02:52:13;0.20;;;0.20;;
40320;SDS011;26027;51.454;6.628;2022-08-01T02:54:40;0.30;;;0.30;;
40320;SDS011;26027;51.454;6.628;2022-08-01T02:57:07;0.20;;;0.20;;
40320;SDS011;26027;51.454;6.628;2022-08-01T02:59:34;0.20;;;0.20;;
40320;SDS011;26027;51.454;6.628;2022-08-01T03:02:02;0.10;;;0.10;;
40320;SDS011;26027;51.454;6.628;2022-08-01T03:04:30;0.20;;;0.20;;
40320;SDS011;26027;51.454;6.628;2022-08-01T03:06:57;0.15;;;0.15;;
40320;SDS011;26027;51.454;6.628;2022-08-01T03:09:25;0.20;;;0.20;;
40320;SDS011;26027;51.454;6.628;2022-08-01T03:11:51;0.22;;;0.20;;
40320;SDS011;26027;51.454;6.628;2022-08-01T03:14:18;0.20;;;0.20;;
40320;SDS011;26027;51.454;6.628;2022-08-01T03:16:46;0.13;;;0.13;;
40320;SDS011;26027;51.454;6.628;2022-08-01T03:19:13;0.30;;;0.30;;
40320;SDS011;26027;51.454;6.628;2022-08-01T03:21:39;0.30;;;0.30;;
40320;SDS011;26027;51.454;6.628;2022-08-01T03:24:06;0.10;;;0.10;;
40320;SDS011;26027;51.454;6.628;2022-08-01T03:26:34;0.20;;;0.20;;
40320;SDS011;26027;51.454;6.628;2022-08-01T03:29:03;0.10;;;0.10;;
40320;SDS011;26027;51.454;6.628;2022-08-01T03:31:35;0.20;;;0.20;;
40320;SDS011;26027;51.454;6.628;2022-08-01T03:34:03;0.20;;;0.20;;
40320;SDS011;26027;51.454;6.628;2022-08-01T03:36:29;0.10;;;0.10;;
40320;SDS011;26027;51.454;6.628;2022-08-01T03:38:58;0.10;;;0.10;;
40320;SDS011;26027;51.454;6.628;2022-08-01T03:41:26;0.10;;;0.10;;
40320;SDS011;26027;51.454;6.628;2022-08-01T03:43:55;0.22;;;0.22;;
40320;SDS011;26027;51.454;6.628;2022-08-01T03:46:22;0.20;;;0.20;;
40320;SDS011;26027;51.454;6.628;2022-08-01T03:48:52;0.20;;;0.20;;
40320;SDS011;26027;51.454;6.628;2022-08-01T03:51:20;0.20;;;0.20;;
40320;SDS011;26027;51.454;6.628;2022-08-01T03:53:47;0.20;;;0.20;;
40320;SDS011;26027;51.454;6.628;2022-08-01T03:56:16;0.10;;;0.10;;
40320;SDS011;26027;51.454;6.628;2022-08-01T03:58:44;0.20;;;0.20;;
40320;SDS011;26027;51.454;6.628;2022-08-01T04:01:10;0.20;;;0.20;;
40320;SDS011;26027;51.454;6.628;2022-08-01T04:03:36;0.17;;;0.17;;
40320;SDS011;26027;51.454;6.628;2022-08-01T04:06:06;0.20;;;0.20;;
40320;SDS011;26027;51.454;6.628;2022-08-01T04:08:35;0.20;;;0.20;;
40320;SDS011;26027;51.454;6.628;2022-08-01T04:11:02;0.20;;;0.20;;
40320;SDS011;26027;51.454;6.628;2022-08-01T04:13:28;0.20;;;0.20;;
40320;SDS011;26027;51.454;6.628;2022-08-01T04:15:54;0.10;;;0.10;;
40320;SDS011;26027;51.454;6.628;2022-08-01T04:18:20;0.20;;;0.20;;
40320;SDS011;26027;51.454;6.628;2022-08-01T04:20:46;0.10;;;0.10;;
40320;SDS011;26027;51.454;6.628;2022-08-01T04:23:13;0.20;;;0.20;;
40320;SDS011;26027;51.454;6.628;2022-08-01T04:25:40;0.30;;;0.30;;
40320;SDS011;26027;51.454;6.628;2022-08-01T04:28:08;0.50;;;0.50;;
40320;SDS011;26027;51.454;6.628;2022-08-01T04:30:41;0.95;;;0.90;;
40320;SDS011;26027;51.454;6.628;2022-08-01T04:33:07;2.47;;;2.17;;
40320;SDS011;26027;51.454;6.628;2022-08-01T04:35:34;2.75;;;2.55;;
40320;SDS011;26027;51.454;6.628;2022-08-01T04:38:02;3.10;;;2.90;;
40320;SDS011;26027;51.454;6.628;2022-08-01T04:40:28;2.80;;;2.20;;
40320;SDS011;26027;51.454;6.628;2022-08-01T04:42:55;2.10;;;2.00;;
40320;SDS011;26027;51.454;6.628;2022-08-01T04:45:21;2.42;;;2.22;;
40320;SDS011;26027;51.454;6.628;2022-08-01T04:47:47;2.97;;;2.33;;
40320;SDS011;26027;51.454;6.628;2022-08-01T04:50:13;2.05;;;1.92;;
40320;SDS011;26027;51.454;6.628;2022-08-01T04:52:40;2.70;;;2.30;;
40320;SDS011;26027;51.454;6.628;2022-08-01T04:55:07;3.15;;;2.85;;
40320;SDS011;26027;51.454;6.628;2022-08-01T04:57:34;2.70;;;2.45;;
40320;SDS011;26027;51.454;6.628;2022-08-01T05:00:02;2.95;;;2.65;;
40320;SDS011;26027;51.454;6.628;2022-08-01T05:02:28;4.28;;;3.85;;
40320;SDS011;26027;51.454;6.628;2022-08-01T05:04:54;3.58;;;3.17;;
40320;SDS011;26027;51.454;6.628;2022-08-01T05:07:20;3.95;;;3.65;;
40320;SDS011;26027;51.454;6.628;2022-08-01T05:09:47;4.43;;;4.03;;
40320;SDS011;26027;51.454;6.628;2022-08-01T05:12:13;4.72;;;4.15;;
40320;SDS011;26027;51.454;6.628;2022-08-01T05:14:39;5.97;;;4.95;;
40320;SDS011;26027;51.454;6.628;2022-08-01T05:17:06;4.85;;;4.25;;
40320;SDS011;26027;51.454;6.628;2022-08-01T05:19:33;5.45;;;4.28;;
40320;SDS011;26027;51.454;6.628;2022-08-01T05:22:04;4.55;;;3.75;;
40320;SDS011;26027;51.454;6.628;2022-08-01T05:24:30;4.10;;;3.80;;
40320;SDS011;26027;51.454;6.628;2022-08-01T05:26:57;4.07;;;3.67;;
40320;SDS011;26027;51.454;6.628;2022-08-01T05:29:23;3.65;;;3.05;;
40320;SDS011;26027;51.454;6.628;2022-08-01T05:31:50;5.95;;;4.70;;
40320;SDS011;26027;51.454;6.628;2022-08-01T05:34:16;5.65;;;5.00;;
40320;SDS011;26027;51.454;6.628;2022-08-01T05:36:42;4.78;;;4.38;;
40320;SDS011;26027;51.454;6.628;2022-08-01T05:39:08;3.95;;;3.60;;
40320;SDS011;26027;51.454;6.628;2022-08-01T05:41:35;5.10;;;4.60;;
40320;SDS011;26027;51.454;6.628;2022-08-01T05:44:01;4.47;;;4.07;;
40320;SDS011;26027;51.454;6.628;2022-08-01T05:46:28;4.97;;;3.70;;
40320;SDS011;26027;51.454;6.628;2022-08-01T05:48:55;3.63;;;3.15;;
40320;SDS011;26027;51.454;6.628;2022-08-01T05:51:21;3.63;;;3.20;;
40320;SDS011;26027;51.454;6.628;2022-08-01T05:53:47;3.13;;;2.83;;
40320;SDS011;26027;51.454;6.628;2022-08-01T05:56:13;4.97;;;3.17;;
40320;SDS011;26027;51.454;6.628;2022-08-01T05:58:39;5.32;;;3.10;;
40320;SDS011;26027;51.454;6.628;2022-08-01T06:01:05;3.78;;;3.33;;
40320;SDS011;26027;51.454;6.628;2022-08-01T06:03:31;4.65;;;3.28;;
40320;SDS011;26027;51.454;6.628;2022-08-01T06:05:58;4.40;;;4.00;;
40320;SDS011;26027;51.454;6.628;2022-08-01T06:08:24;4.07;;;3.17;;
40320;SDS011;26027;51.454;6.628;2022-08-01T06:10:50;3.70;;;3.40;;
40320;SDS011;26027;51.454;6.628;2022-08-01T06:13:16;3.15;;;2.92;;
40320;SDS011;26027;51.454;6.628;2022-08-01T06:15:44;4.20;;;3.60;;
40320;SDS011;26027;51.454;6.628;2022-08-01T06:18:10;3.30;;;3.00;;
40320;SDS011;26027;51.454;6.628;2022-08-01T06:20:36;4.13;;;3.70;;
40320;SDS011;26027;51.454;6.628;2022-08-01T06:23:02;3.85;;;3.50;;
40320;SDS011;26027;51.454;6.628;2022-08-01T06:25:28;3.25;;;2.80;;
40320;SDS011;26027;51.454;6.628;2022-08-01T06:27:57;3.30;;;3.00;;
40320;SDS011;26027;51.454;6.628;2022-08-01T06:30:24;3.70;;;3.08;;
40320;SDS011;26027;51.454;6.628;2022-08-01T06:32:50;4.72;;;3.03;;
40320;SDS011;26027;51.454;6.628;2022-08-01T06:35:16;4.10;;;2.97;;
40320;SDS011;26027;51.454;6.628;2022-08-01T06:37:42;5.43;;;2.80;;
40320;SDS011;26027;51.454;6.628;2022-08-01T06:40:09;3.90;;;2.70;;
40320;SDS011;26027;51.454;6.628;2022-08-01T06:42:39;6.15;;;5.55;;
40320;SDS011;26027;51.454;6.628;2022-08-01T06:45:06;6.20;;;4.63;;
40320;SDS011;26027;51.454;6.628;2022-08-01T06:47:32;4.78;;;4.38;;
40320;SDS011;26027;51.454;6.628;2022-08-01T06:49:58;4.40;;;4.00;;
40320;SDS011;26027;51.454;6.628;2022-08-01T06:52:24;4.97;;;3.75;;
40320;SDS011;26027;51.454;6.628;2022-08-01T06:54:50;4.25;;;3.45;;
40320;SDS011;26027;51.454;6.628;2022-08-01T06:57:16;5.93;;;4.55;;
40320;SDS011;26027;51.454;6.628;2022-08-01T06:59:42;4.78;;;4.22;;
40320;SDS011;26027;51.454;6.628;2022-08-01T07:02:08;4.78;;;3.92;;
40320;SDS011;26027;51.454;6.628;2022-08-01T07:04:34;4.05;;;3.65;;
40320;SDS011;26027;51.454;6.628;2022-08-01T07:07:00;4.50;;;4.00;;
40320;SDS011;26027;51.454;6.628;2022-08-01T07:09:26;5.75;;;4.18;;
40320;SDS011;26027;51.454;6.628;2022-08-01T07:11:53;4.70;;;4.10;;
40320;SDS011;26027;51.454;6.628;2022-08-01T07:14:20;4.95;;;3.72;;
40320;SDS011;26027;51.454;6.628;2022-08-01T07:16:46;4.78;;;4.28;;
40320;SDS011;26027;51.454;6.628;2022-08-01T07:19:12;4.45;;;4.05;;
40320;SDS011;26027;51.454;6.628;2022-08-01T07:21:39;3.22;;;2.92;;
40320;SDS011;26027;51.454;6.628;2022-08-01T07:24:08;2.97;;;2.63;;
40320;SDS011;26027;51.454;6.628;2022-08-01T07:26:35;4.28;;;3.75;;
40320;SDS011;26027;51.454;6.628;2022-08-01T07:29:01;6.30;;;4.82;;
40320;SDS011;26027;51.454;6.628;2022-08-01T07:31:27;6.28;;;4.65;;
40320;SDS011;26027;51.454;6.628;2022-08-01T07:33:53;4.53;;;4.10;;
40320;SDS011;26027;51.454;6.628;2022-08-01T07:36:19;6.72;;;5.20;;
40320;SDS011;26027;51.454;6.628;2022-08-01T07:38:46;5.70;;;4.97;;
40320;SDS011;26027;51.454;6.628;2022-08-01T07:41:12;5.20;;;4.43;;
40320;SDS011;26027;51.454;6.628;2022-08-01T07:43:39;4.63;;;4.20;;
40320;SDS011;26027;51.454;6.628;2022-08-01T07:46:05;4.63;;;3.97;;
40320;SDS011;26027;51.454;6.628;2022-08-01T07:48:31;3.50;;;3.20;;
40320;SDS011;26027;51.454;6.628;2022-08-01T07:50:58;3.15;;;2.85;;
40320;SDS011;26027;51.454;6.628;2022-08-01T07:53:24;4.00;;;3.47;;
40320;SDS011;26027;51.454;6.628;2022-08-01T07:55:50;3.63;;;3.13;;
40320;SDS011;26027;51.454;6.628;2022-08-01T07:58:16;4.00;;;3.60;;
40320;SDS011;26027;51.454;6.628;2022-08-01T08:00:42;3.95;;;3.13;;
40320;SDS011;26027;51.454;6.628;2022-08-01T08:03:08;5.53;;;2.60;;
40320;SDS011;26027;51.454;6.628;2022-08-01T08:05:35;2.92;;;2.33;;
40320;SDS011;26027;51.454;6.628;2022-08-01T08:08:05;2.10;;;1.95;;
40320;SDS011;26027;51.454;6.628;2022-08-01T08:10:31;1.92;;;1.83;;
40320;SDS011;26027;51.454;6.628;2022-08-01T08:12:57;2.00;;;1.90;;
40320;SDS011;26027;51.454;6.628;2022-08-01T08:15:23;2.00;;;1.70;;
40320;SDS011;26027;51.454;6.628;2022-08-01T08:17:49;1.70;;;1.60;;
40320;SDS011;26027;51.454;6.628;2022-08-01T08:20:15;1.63;;;1.52;;
40320;SDS011;26027;51.454;6.628;2022-08-01T08:22:42;1.50;;;1.40;;
40320;SDS011;26027;51.454;6.628;2022-08-01T08:25:08;1.67;;;1.58;;
40320;SDS011;26027;51.454;6.628;2022-08-01T08:27:35;1.63;;;1.50;;
40320;SDS011;26027;51.454;6.628;2022-08-01T08:30:02;1.60;;;1.50;;
40320;SDS011;26027;51.454;6.628;2022-08-01T08:32:28;1.45;;;1.20;;
40320;SDS011;26027;51.454;6.628;2022-08-01T08:34:54;1.63;;;1.52;;
40320;SDS011;26027;51.454;6.628;2022-08-01T08:37:20;1.58;;;1.48;;
40320;SDS011;26027;51.454;6.628;2022-08-01T08:39:46;1.75;;;1.25;;
40320;SDS011;26027;51.454;6.628;2022-08-01T08:42:12;1.75;;;1.63;;
40320;SDS011;26027;51.454;6.628;2022-08-01T08:44:41;1.88;;;1.77;;
40320;SDS011;26027;51.454;6.628;2022-08-01T08:47:08;1.70;;;1.60;;
40320;SDS011;26027;51.454;6.628;2022-08-01T08:49:36;1.58;;;1.48;;
40320;SDS011;26027;51.454;6.628;2022-08-01T08:52:02;2.40;;;1.85;;
40320;SDS011;26027;51.454;6.628;2022-08-01T08:54:29;1.70;;;1.60;;
40320;SDS011;26027;51.454;6.628;2022-08-01T08:56:55;2.20;;;1.90;;
40320;SDS011;26027;51.454;6.628;2022-08-01T08:59:22;1.80;;;1.70;;
40320;SDS011;26027;51.454;6.628;2022-08-01T09:01:51;1.85;;;1.60;;
40320;SDS011;26027;51.454;6.628;2022-08-01T09:04:17;2.45;;;1.65;;
40320;SDS011;26027;51.454;6.628;2022-08-01T09:06:43;1.80;;;1.70;;
40320;SDS011;26027;51.454;6.628;2022-08-01T09:09:10;3.55;;;1.65;;
40320;SDS011;26027;51.454;6.628;2022-08-01T09:11:36;3.03;;;1.65;;
40320;SDS011;26027;51.454;6.628;2022-08-01T09:14:16;1.52;;;1.42;;
40320;SDS011;26027;51.454;6.628;2022-08-01T09:17:00;1.42;;;1.23;;
40320;SDS011;26027;51.454;6.628;2022-08-01T09:19:27;1.67;;;1.58;;
40320;SDS011;26027;51.454;6.628;2022-08-01T09:22:00;2.53;;;1.70;;
40320;SDS011;26027;51.454;6.628;2022-08-01T09:24:28;2.33;;;1.90;;
40320;SDS011;26027;51.454;6.628;2022-08-01T09:26:54;2.00;;;1.90;;
40320;SDS011;26027;51.454;6.628;2022-08-01T09:29:24;2.40;;;2.20;;
40320;SDS011;26027;51.454;6.628;2022-08-01T09:31:51;2.42;;;1.95;;
40320;SDS011;26027;51.454;6.628;2022-08-01T09:34:26;2.05;;;1.95;;
40320;SDS011;26027;51.454;6.628;2022-08-01T09:36:57;2.15;;;1.98;;
40320;SDS011;26027;51.454;6.628;2022-08-01T09:39:30;2.30;;;1.90;;
40320;SDS011;26027;51.454;6.628;2022-08-01T09:41:57;2.08;;;1.90;;
40320;SDS011;26027;51.454;6.628;2022-08-01T09:44:43;1.80;;;1.70;;
40320;SDS011;26027;51.454;6.628;2022-08-01T09:47:09;5.90;;;1.80;;
40320;SDS011;26027;51.454;6.628;2022-08-01T09:49:37;1.55;;;1.45;;
40320;SDS011;26027;51.454;6.628;2022-08-01T09:55:03;1.52;;;1.42;;
40320;SDS011;26027;51.454;6.628;2022-08-01T09:57:29;1.73;;;1.63;;
40320;SDS011;26027;51.454;6.628;2022-08-01T09:59:56;1.95;;;1.80;;
40320;SDS011;26027;51.454;6.628;2022-08-01T10:02:27;1.70;;;1.60;;
40320;SDS011;26027;51.454;6.628;2022-08-01T10:04:53;1.58;;;1.55;;
40320;SDS011;26027;51.454;6.628;2022-08-01T10:07:19;1.67;;;1.27;;
40320;SDS011;26027;51.454;6.628;2022-08-01T10:09:47;1.60;;;1.50;;
40320;SDS011;26027;51.454;6.628;2022-08-01T10:12:14;2.22;;;1.35;;
40320;SDS011;26027;51.454;6.628;2022-08-01T10:14:40;1.20;;;1.10;;
40320;SDS011;26027;51.454;6.628;2022-08-01T10:17:07;1.20;;;1.20;;
40320;SDS011;26027;51.454;6.628;2022-08-01T10:19:34;1.42;;;0.98;;
40320;SDS011;26027;51.454;6.628;2022-08-01T10:22:00;1.00;;;1.00;;
40320;SDS011;26027;51.454;6.628;2022-08-01T10:24:28;1.10;;;1.00;;
40320;SDS011;26027;51.454;6.628;2022-08-01T10:26:56;1.08;;;0.98;;
40320;SDS011;26027;51.454;6.628;2022-08-01T10:29:27;1.08;;;0.93;;
40320;SDS011;26027;51.454;6.628;2022-08-01T10:31:53;0.75;;;0.60;;
40320;SDS011;26027;51.454;6.628;2022-08-01T10:34:19;0.95;;;0.80;;
40320;SDS011;26027;51.454;6.628;2022-08-01T10:36:46;0.77;;;0.77;;
40320;SDS011;26027;51.454;6.628;2022-08-01T10:39:13;1.23;;;0.70;;
40320;SDS011;26027;51.454;6.628;2022-08-01T10:41:39;0.70;;;0.70;;
40320;SDS011;26027;51.454;6.628;2022-08-01T10:44:06;0.90;;;0.90;;
40320;SDS011;26027;51.454;6.628;2022-08-01T10:46:32;1.00;;;0.80;;
40320;SDS011;26027;51.454;6.628;2022-08-01T10:49:07;1.60;;;0.80;;
40320;SDS011;26027;51.454;6.628;2022-08-01T10:51:36;0.75;;;0.70;;
40320;SDS011;26027;51.454;6.628;2022-08-01T10:54:05;0.77;;;0.77;;
40320;SDS011;26027;51.454;6.628;2022-08-01T10:56:38;0.80;;;0.60;;
40320;SDS011;26027;51.454;6.628;2022-08-01T10:59:04;0.70;;;0.70;;
40320;SDS011;26027;51.454;6.628;2022-08-01T11:01:31;1.50;;;0.70;;
40320;SDS011;26027;51.454;6.628;2022-08-01T11:09:00;2.00;;;1.00;;
40320;SDS011;26027;51.454;6.628;2022-08-01T11:11:26;0.80;;;0.55;;
40320;SDS011;26027;51.454;6.628;2022-08-01T11:16:38;1.75;;;0.90;;
40320;SDS011;26027;51.454;6.628;2022-08-01T11:19:04;0.65;;;0.65;;
40320;SDS011;26027;51.454;6.628;2022-08-01T11:24:16;1.95;;;0.70;;
40320;SDS011;26027;51.454;6.628;2022-08-01T11:35:14;0.93;;;0.70;;
40320;SDS011;26027;51.454;6.628;2022-08-01T11:37:40;1.60;;;0.80;;
40320;SDS011;26027;51.454;6.628;2022-08-01T11:40:16;0.95;;;0.60;;
40320;SDS011;26027;51.454;6.628;2022-08-01T11:42:42;1.08;;;0.82;;
40320;SDS011;26027;51.454;6.628;2022-08-01T11:45:08;0.65;;;0.65;;
40320;SDS011;26027;51.454;6.628;2022-08-01T11:47:44;1.15;;;0.60;;
40320;SDS011;26027;51.454;6.628;2022-08-01T11:52:59;0.70;;;0.70;;
40320;SDS011;26027;51.454;6.628;2022-08-01T11:55:26;1.40;;;0.80;;
40320;SDS011;26027;51.454;6.628;2022-08-01T11:57:59;1.52;;;0.80;;
40320;SDS011;26027;51.454;6.628;2022-08-01T12:00:26;0.75;;;0.75;;
40320;SDS011;26027;51.454;6.628;2022-08-01T12:03:03;0.80;;;0.80;;
40320;SDS011;26027;51.454;6.628;2022-08-01T12:05:29;1.00;;;0.85;;
40320;SDS011;26027;51.454;6.628;2022-08-01T12:07:56;0.85;;;0.85;;
40320;SDS011;26027;51.454;6.628;2022-08-01T12:10:23;0.85;;;0.85;;
40320;SDS011;26027;51.454;6.628;2022-08-01T12:12:54;1.10;;;1.00;;
40320;SDS011;26027;51.454;6.628;2022-08-01T12:15:22;0.82;;;0.80;;
40320;SDS011;26027;51.454;6.628;2022-08-01T12:17:58;0.82;;;0.82;;
40320;SDS011;26027;51.454;6.628;2022-08-01T12:20:34;0.95;;;0.70;;
40320;SDS011;26027;51.454;6.628;2022-08-01T12:23:01;1.10;;;1.00;;
40320;SDS011;26027;51.454;6.628;2022-08-01T12:25:28;0.63;;;0.63;;
40320;SDS011;26027;51.454;6.628;2022-08-01T12:27:54;0.70;;;0.70;;
40320;SDS011;26027;51.454;6.628;2022-08-01T12:30:21;1.00;;;0.90;;
40320;SDS011;26027;51.454;6.628;2022-08-01T12:32:49;2.30;;;0.80;;
40320;SDS011;26027;51.454;6.628;2022-08-01T12:35:19;0.95;;;0.82;;
40320;SDS011;26027;51.454;6.628;2022-08-01T12:37:49;0.88;;;0.88;;
40320;SDS011;26027;51.454;6.628;2022-08-01T12:40:20;0.98;;;0.98;;
40320;SDS011;26027;51.454;6.628;2022-08-01T12:42:47;0.88;;;0.88;;
40320;SDS011;26027;51.454;6.628;2022-08-01T12:45:15;2.15;;;0.90;;
40320;SDS011;26027;51.454;6.628;2022-08-01T12:47:41;0.93;;;0.93;;
40320;SDS011;26027;51.454;6.628;2022-08-01T12:50:10;1.75;;;1.10;;
40320;SDS011;26027;51.454;6.628;2022-08-01T12:52:37;1.02;;;0.93;;
40320;SDS011;26027;51.454;6.628;2022-08-01T12:57:29;2.00;;;0.85;;
40320;SDS011;26027;51.454;6.628;2022-08-01T13:03:08;1.58;;;1.00;;
40320;SDS011;26027;51.454;6.628;2022-08-01T13:05:47;1.13;;;0.90;;
40320;SDS011;26027;51.454;6.628;2022-08-01T13:08:18;1.83;;;0.82;;
40320;SDS011;26027;51.454;6.628;2022-08-01T13:10:44;1.00;;;1.00;;
40320;SDS011;26027;51.454;6.628;2022-08-01T13:13:10;1.67;;;0.98;;
40320;SDS011;26027;51.454;6.628;2022-08-01T13:15:38;1.20;;;0.95;;
40320;SDS011;26027;51.454;6.628;2022-08-01T13:20:49;0.90;;;0.80;;
40320;SDS011;26027;51.454;6.628;2022-08-01T13:23:16;0.63;;;0.63;;
40320;SDS011;26027;51.454;6.628;2022-08-01T13:25:46;0.98;;;0.98;;
40320;SDS011;26027;51.454;6.628;2022-08-01T13:28:16;1.02;;;0.93;;
40320;SDS011;26027;51.454;6.628;2022-08-01T13:30:50;2.25;;;1.30;;
40320;SDS011;26027;51.454;6.628;2022-08-01T13:33:16;1.20;;;0.95;;
40320;SDS011;26027;51.454;6.628;2022-08-01T13:35:42;0.90;;;0.90;;
40320;SDS011;26027;51.454;6.628;2022-08-01T13:38:08;1.10;;;1.00;;
40320;SDS011;26027;51.454;6.628;2022-08-01T13:40:34;1.00;;;1.00;;
40320;SDS011;26027;51.454;6.628;2022-08-01T13:43:00;0.90;;;0.90;;
40320;SDS011;26027;51.454;6.628;2022-08-01T13:45:26;2.22;;;0.80;;
40320;SDS011;26027;51.454;6.628;2022-08-01T13:47:52;1.00;;;1.00;;
40320;SDS011;26027;51.454;6.628;2022-08-01T13:50:19;1.17;;;1.10;;
40320;SDS011;26027;51.454;6.628;2022-08-01T13:52:45;1.42;;;0.90;;
40320;SDS011;26027;51.454;6.628;2022-08-01T13:55:11;1.02;;;0.93;;
40320;SDS011;26027;51.454;6.628;2022-08-01T13:57:37;1.17;;;0.90;;
40320;SDS011;26027;51.454;6.628;2022-08-01T14:00:04;1.25;;;1.00;;
40320;SDS011;26027;51.454;6.628;2022-08-01T14:02:31;1.77;;;0.98;;
40320;SDS011;26027;51.454;6.628;2022-08-01T14:04:57;3.30;;;1.20;;
40320;SDS011;26027;51.454;6.628;2022-08-01T14:07:23;1.25;;;1.15;;
40320;SDS011;26027;51.454;6.628;2022-08-01T14:09:49;1.73;;;1.10;;
40320;SDS011;26027;51.454;6.628;2022-08-01T14:12:16;0.82;;;0.80;;
40320;SDS011;26027;51.454;6.628;2022-08-01T14:14:42;1.00;;;0.90;;
40320;SDS011;26027;51.454;6.628;2022-08-01T14:17:08;1.65;;;1.02;;
40320;SDS011;26027;51.454;6.628;2022-08-01T14:19:34;1.77;;;1.00;;
40320;SDS011;26027;51.454;6.628;2022-08-01T14:22:00;3.28;;;1.10;;
40320;SDS011;26027;51.454;6.628;2022-08-01T14:24:26;2.08;;;1.30;;
40320;SDS011;26027;51.454;6.628;2022-08-01T14:26:52;1.27;;;0.80;;
40320;SDS011;26027;51.454;6.628;2022-08-01T14:29:18;0.90;;;0.80;;
40320;SDS011;26027;51.454;6.628;2022-08-01T14:31:44;3.15;;;0.70;;
40320;SDS011;26027;51.454;6.628;2022-08-01T14:34:10;1.00;;;0.80;;
40320;SDS011;26027;51.454;6.628;2022-08-01T14:36:38;1.67;;;1.00;;
40320;SDS011;26027;51.454;6.628;2022-08-01T14:39:04;1.92;;;1.13;;
40320;SDS011;26027;51.454;6.628;2022-08-01T14:41:30;1.92;;;1.02;;
40320;SDS011;26027;51.454;6.628;2022-08-01T14:43:57;1.10;;;0.90;;
40320;SDS011;26027;51.454;6.628;2022-08-01T14:46:24;1.75;;;0.80;;
40320;SDS011;26027;51.454;6.628;2022-08-01T14:48:50;0.90;;;0.90;;
40320;SDS011;26027;51.454;6.628;2022-08-01T14:51:16;0.80;;;0.80;;
40320;SDS011;26027;51.454;6.628;2022-08-01T14:53:42;2.97;;;1.02;;
40320;SDS011;26027;51.454;6.628;2022-08-01T14:56:08;0.75;;;0.75;;
40320;SDS011;26027;51.454;6.628;2022-08-01T14:58:34;1.20;;;1.00;;
40320;SDS011;26027;51.454;6.628;2022-08-01T15:01:00;0.95;;;0.88;;
40320;SDS011;26027;51.454;6.628;2022-08-01T15:03:27;0.98;;;0.80;;
40320;SDS011;26027;51.454;6.628;2022-08-01T15:05:53;0.90;;;0.60;;
40320;SDS011;26027;51.454;6.628;2022-08-01T15:08:19;0.73;;;0.73;;
40320;SDS011;26027;51.454;6.628;2022-08-01T15:10:45;0.65;;;0.65;;
40320;SDS011;26027;51.454;6.628;2022-08-01T15:13:11;1.00;;;0.88;;
40320;SDS011;26027;51.454;6.628;2022-08-01T15:15:37;1.25;;;0.80;;
40320;SDS011;26027;51.454;6.628;2022-08-01T15:18:03;0.65;;;0.65;;
40320;SDS011;26027;51.454;6.628;2022-08-01T15:20:30;0.80;;;0.80;;
40320;SDS011;26027;51.454;6.628;2022-08-01T15:22:56;0.80;;;0.80;;
40320;SDS011;26027;51.454;6.628;2022-08-01T15:25:22;0.70;;;0.70;;
40320;SDS011;26027;51.454;6.628;2022-08-01T15:27:48;0.85;;;0.82;;